Allison Park, PA

9:46 PM EST on December 04, 2016 (GMT -0500)
Andrew's weather | | Change Station

Elev 1118 ft 40.58 °N, 79.95 °W | Updated 5 minutes ago

Overcast
Overcast
38.7 °F
Feels Like 39 °F
N
0.0
Wind Variable Wind from SE
Gusts 2.0 mph

Today
High -- | Low -- °F
--% Chance of Precip.
Yesterday
High -- | Low -- °F
Precip. -- in
Pressure 29.93 in
Visibility 10.0 miles
Clouds Overcast 5500 ft
Windchill 39 °F
Dew Point 31 °F
Humidity 74%
Rainfall 0.00 in
Snow Depth Not available.
7:27 AM 4:52 PM
Waxing Crescent, 27% visible
METAR KAGC 050153Z 11007KT 10SM -RA OVC055 03/M02 A2989 RMK AO2 RAB0056E09B28 SLP135 P0000 T00331022
Pressure 29.93 in
Visibility 10.0 miles
Clouds Overcast 5500 ft
Windchill 39 °F
Dew Point 31 °F
Humidity 74%
Rainfall 0.00 in
Snow Depth Not available.
7:27 AM 4:52 PM
Waxing Crescent, 27% visible
METAR KAGC 050153Z 11007KT 10SM -RA OVC055 03/M02 A2989 RMK AO2 RAB0056E09B28 SLP135 P0000 T00331022

10-Day Weather Forecast

Almanac

Astronomy

Dec. 04, 2016 Rise Set
Actual Time
Civil Twilight
Nautical Twilight
Astronomical Twilight
Moon
Length of Visible Light
Length of Day
Tomorrow will be .
, % of the Moon is Illuminated

Today's Extremes

State Highs State Lows

Community

WunderPhotos

Upload Photos

1,955,744 photos uploaded!

WunderBlog® & News

Nearby

Air Quality

  Air Quality AQ Index Pollutant
Not available.

Snow Depth

Station Depth Elevation

Earthquake Activity

City Distance Mag. Time & Date
Minimum magnitude displayed is 2.5.

Coastal Water Temperatures

Place Temperature

Stations

Nearby Weather Stations

Station Location Temp. Windchill Dew Point Humidity Wind Precip. Elev Updated Type
                   

Watches & Warnings

There are currently no watches in effect.